sensor_id;sensor_type;location;lat;lon;timestamp;temperature;humidity
38456;DHT22;24237;50.106;20.014;2024-03-02T00:00:19;10.90;63.80
38456;DHT22;24237;50.106;20.014;2024-03-02T00:02:48;10.70;99.90
38456;DHT22;24237;50.106;20.014;2024-03-02T00:05:16;10.60;99.90
38456;DHT22;24237;50.106;20.014;2024-03-02T00:07:43;10.50;99.90
38456;DHT22;24237;50.106;20.014;2024-03-02T00:10:11;10.30;99.90
38456;DHT22;24237;50.106;20.014;2024-03-02T00:12:38;10.40;99.90
38456;DHT22;24237;50.106;20.014;2024-03-02T00:17:58;10.00;1.00
38456;DHT22;24237;50.106;20.014;2024-03-02T00:20:24;9.90;1.00
38456;DHT22;24237;50.106;20.014;2024-03-02T00:22:58;9.90;1.00
38456;DHT22;24237;50.106;20.014;2024-03-02T00:25:26;9.80;1.00
38456;DHT22;24237;50.106;20.014;2024-03-02T00:27:52;9.70;32.40
38456;DHT22;24237;50.106;20.014;2024-03-02T00:33:04;9.70;63.70
38456;DHT22;24237;50.106;20.014;2024-03-02T00:35:32;9.70;88.60
38456;DHT22;24237;50.106;20.014;2024-03-02T00:38:03;9.80;79.10
38456;DHT22;24237;50.106;20.014;2024-03-02T00:40:29;9.90;16.10
38456;DHT22;24237;50.106;20.014;2024-03-02T00:42:56;9.80;39.40
38456;DHT22;24237;50.106;20.014;2024-03-02T00:45:21;9.90;1.00
38456;DHT22;24237;50.106;20.014;2024-03-02T00:47:47;10.00;1.00
38456;DHT22;24237;50.106;20.014;2024-03-02T00:50:13;10.10;99.90
38456;DHT22;24237;50.106;20.014;2024-03-02T00:52:40;10.10;1.00
38456;DHT22;24237;50.106;20.014;2024-03-02T00:55:06;10.00;1.00
38456;DHT22;24237;50.106;20.014;2024-03-02T00:57:34;9.90;99.90
38456;DHT22;24237;50.106;20.014;2024-03-02T01:00:00;9.80;1.00
38456;DHT22;24237;50.106;20.014;2024-03-02T01:02:26;9.70;1.00
38456;DHT22;24237;50.106;20.014;2024-03-02T01:04:52;9.80;62.70
38456;DHT22;24237;50.106;20.014;2024-03-02T01:07:17;10.00;1.00
38456;DHT22;24237;50.106;20.014;2024-03-02T01:09:43;10.00;1.00
38456;DHT22;24237;50.106;20.014;2024-03-02T01:12:10;9.70;1.00
38456;DHT22;24237;50.106;20.014;2024-03-02T01:14:36;9.70;1.00
38456;DHT22;24237;50.106;20.014;2024-03-02T01:17:01;9.60;10.90
38456;DHT22;24237;50.106;20.014;2024-03-02T01:19:30;9.70;99.90
38456;DHT22;24237;50.106;20.014;2024-03-02T01:21:55;9.50;98.50
38456;DHT22;24237;50.106;20.014;2024-03-02T01:24:22;9.40;99.90
38456;DHT22;24237;50.106;20.014;2024-03-02T01:26:47;9.40;99.90
38456;DHT22;24237;50.106;20.014;2024-03-02T01:29:13;9.50;99.90
38456;DHT22;24237;50.106;20.014;2024-03-02T01:31:39;9.60;99.90
38456;DHT22;24237;50.106;20.014;2024-03-02T01:34:07;9.40;99.90
38456;DHT22;24237;50.106;20.014;2024-03-02T01:36:33;9.50;99.90
38456;DHT22;24237;50.106;20.014;2024-03-02T01:38:59;9.60;99.90
38456;DHT22;24237;50.106;20.014;2024-03-02T01:41:24;9.80;99.90
38456;DHT22;24237;50.106;20.014;2024-03-02T01:43:50;9.80;90.90
38456;DHT22;24237;50.106;20.014;2024-03-02T01:46:16;9.90;38.10
38456;DHT22;24237;50.106;20.014;2024-03-02T01:48:42;10.00;1.00
38456;DHT22;24237;50.106;20.014;2024-03-02T01:51:07;9.80;1.80
38456;DHT22;24237;50.106;20.014;2024-03-02T01:53:34;9.90;40.70
38456;DHT22;24237;50.106;20.014;2024-03-02T01:56:00;9.90;99.90
38456;DHT22;24237;50.106;20.014;2024-03-02T01:58:27;9.60;99.90
38456;DHT22;24237;50.106;20.014;2024-03-02T02:00:52;9.60;99.90
38456;DHT22;24237;50.106;20.014;2024-03-02T02:03:18;9.60;99.90
38456;DHT22;24237;50.106;20.014;2024-03-02T02:05:44;9.60;99.90
38456;DHT22;24237;50.106;20.014;2024-03-02T02:08:10;9.70;99.90
38456;DHT22;24237;50.106;20.014;2024-03-02T02:10:36;9.70;99.90
38456;DHT22;24237;50.106;20.014;2024-03-02T02:13:02;9.70;99.90
38456;DHT22;24237;50.106;20.014;2024-03-02T02:15:31;9.70;99.90
38456;DHT22;24237;50.106;20.014;2024-03-02T02:17:58;9.40;99.90
38456;DHT22;24237;50.106;20.014;2024-03-02T02:20:24;9.60;99.90
38456;DHT22;24237;50.106;20.014;2024-03-02T02:23:01;9.60;58.70
38456;DHT22;24237;50.106;20.014;2024-03-02T02:25:27;9.60;95.60
38456;DHT22;24237;50.106;20.014;2024-03-02T02:27:54;9.40;86.80
38456;DHT22;24237;50.106;20.014;2024-03-02T02:30:23;9.50;78.10
38456;DHT22;24237;50.106;20.014;2024-03-02T02:32:49;9.30;95.70
38456;DHT22;24237;50.106;20.014;2024-03-02T02:35:15;9.20;99.90
38456;DHT22;24237;50.106;20.014;2024-03-02T02:37:41;9.20;99.90
38456;DHT22;24237;50.106;20.014;2024-03-02T02:40:07;9.20;99.90
38456;DHT22;24237;50.106;20.014;2024-03-02T02:42:33;9.20;99.90
38456;DHT22;24237;50.106;20.014;2024-03-02T02:44:58;9.20;99.90
38456;DHT22;24237;50.106;20.014;2024-03-02T02:47:25;9.20;99.90
38456;DHT22;24237;50.106;20.014;2024-03-02T02:49:50;9.30;99.90
38456;DHT22;24237;50.106;20.014;2024-03-02T02:52:16;9.40;99.90
38456;DHT22;24237;50.106;20.014;2024-03-02T02:54:44;9.50;99.90
38456;DHT22;24237;50.106;20.014;2024-03-02T02:57:10;9.40;38.80
38456;DHT22;24237;50.106;20.014;2024-03-02T02:59:36;9.60;1.00
38456;DHT22;24237;50.106;20.014;2024-03-02T03:02:02;9.40;43.80
38456;DHT22;24237;50.106;20.014;2024-03-02T03:04:28;9.40;62.20
38456;DHT22;24237;50.106;20.014;2024-03-02T03:06:53;9.20;93.70
38456;DHT22;24237;50.106;20.014;2024-03-02T03:09:19;9.30;98.40
38456;DHT22;24237;50.106;20.014;2024-03-02T03:11:44;9.20;40.60
38456;DHT22;24237;50.106;20.014;2024-03-02T03:14:10;9.30;63.40
38456;DHT22;24237;50.106;20.014;2024-03-02T03:16:36;9.10;99.90
38456;DHT22;24237;50.106;20.014;2024-03-02T03:19:01;9.20;99.90
38456;DHT22;24237;50.106;20.014;2024-03-02T03:21:27;9.30;10.20
38456;DHT22;24237;50.106;20.014;2024-03-02T03:23:52;9.00;99.90
38456;DHT22;24237;50.106;20.014;2024-03-02T03:26:18;8.90;99.90
38456;DHT22;24237;50.106;20.014;2024-03-02T03:28:44;9.10;99.90
38456;DHT22;24237;50.106;20.014;2024-03-02T03:31:10;9.00;99.90
38456;DHT22;24237;50.106;20.014;2024-03-02T03:33:36;8.90;99.90
38456;DHT22;24237;50.106;20.014;2024-03-02T03:36:01;8.80;99.90
38456;DHT22;24237;50.106;20.014;2024-03-02T03:38:29;8.70;99.90
38456;DHT22;24237;50.106;20.014;2024-03-02T03:40:55;8.90;99.90
38456;DHT22;24237;50.106;20.014;2024-03-02T03:43:20;8.90;99.90
38456;DHT22;24237;50.106;20.014;2024-03-02T03:45:46;8.60;99.90
38456;DHT22;24237;50.106;20.014;2024-03-02T03:48:12;8.60;99.90
38456;DHT22;24237;50.106;20.014;2024-03-02T03:50:37;8.60;99.90
38456;DHT22;24237;50.106;20.014;2024-03-02T03:53:03;8.70;99.90
38456;DHT22;24237;50.106;20.014;2024-03-02T03:55:29;8.60;99.90
38456;DHT22;24237;50.106;20.014;2024-03-02T03:57:55;8.60;99.90
38456;DHT22;24237;50.106;20.014;2024-03-02T04:00:20;8.60;99.90
38456;DHT22;24237;50.106;20.014;2024-03-02T04:02:46;8.60;99.90
38456;DHT22;24237;50.106;20.014;2024-03-02T04:05:11;8.50;99.90
38456;DHT22;24237;50.106;20.014;2024-03-02T04:07:37;8.60;99.90
38456;DHT22;24237;50.106;20.014;2024-03-02T04:10:10;8.60;99.90
38456;DHT22;24237;50.106;20.014;2024-03-02T04:12:39;8.60;99.90
38456;DHT22;24237;50.106;20.014;2024-03-02T04:15:05;8.50;99.90
38456;DHT22;24237;50.106;20.014;2024-03-02T04:17:32;8.60;99.90
38456;DHT22;24237;50.106;20.014;2024-03-02T04:19:59;8.90;99.90
38456;DHT22;24237;50.106;20.014;2024-03-02T04:22:25;8.90;99.90
38456;DHT22;24237;50.106;20.014;2024-03-02T04:24:51;9.00;99.90
38456;DHT22;24237;50.106;20.014;2024-03-02T04:27:17;9.00;99.90
38456;DHT22;24237;50.106;20.014;2024-03-02T04:29:42;8.90;99.90
38456;DHT22;24237;50.106;20.014;2024-03-02T04:32:08;8.90;99.90
38456;DHT22;24237;50.106;20.014;2024-03-02T04:34:34;9.10;99.90
38456;DHT22;24237;50.106;20.014;2024-03-02T04:36:59;9.00;99.90
38456;DHT22;24237;50.106;20.014;2024-03-02T04:39:25;9.20;99.90
38456;DHT22;24237;50.106;20.014;2024-03-02T04:41:50;8.90;99.90
38456;DHT22;24237;50.106;20.014;2024-03-02T04:44:16;9.10;99.90
38456;DHT22;24237;50.106;20.014;2024-03-02T04:46:42;9.10;99.90
38456;DHT22;24237;50.106;20.014;2024-03-02T04:49:07;9.10;99.90
38456;DHT22;24237;50.106;20.014;2024-03-02T04:51:33;9.00;99.90
38456;DHT22;24237;50.106;20.014;2024-03-02T04:53:59;8.90;99.90
38456;DHT22;24237;50.106;20.014;2024-03-02T04:56:25;9.00;99.90
38456;DHT22;24237;50.106;20.014;2024-03-02T04:58:56;8.90;99.90
38456;DHT22;24237;50.106;20.014;2024-03-02T05:01:22;8.80;99.90
38456;DHT22;24237;50.106;20.014;2024-03-02T05:03:47;8.80;99.90
38456;DHT22;24237;50.106;20.014;2024-03-02T05:06:13;8.90;99.90
38456;DHT22;24237;50.106;20.014;2024-03-02T05:08:39;8.90;99.90
38456;DHT22;24237;50.106;20.014;2024-03-02T05:11:04;8.80;99.90
38456;DHT22;24237;50.106;20.014;2024-03-02T05:13:49;8.60;99.90
38456;DHT22;24237;50.106;20.014;2024-03-02T05:16:14;8.70;99.90
38456;DHT22;24237;50.106;20.014;2024-03-02T05:18:40;8.60;99.90
38456;DHT22;24237;50.106;20.014;2024-03-02T05:21:06;8.60;99.90
38456;DHT22;24237;50.106;20.014;2024-03-02T05:23:31;8.60;99.90
38456;DHT22;24237;50.106;20.014;2024-03-02T05:25:57;8.70;99.90
38456;DHT22;24237;50.106;20.014;2024-03-02T05:28:22;8.70;99.90
38456;DHT22;24237;50.106;20.014;2024-03-02T05:30:48;8.70;99.90
38456;DHT22;24237;50.106;20.014;2024-03-02T05:33:15;8.70;99.90
38456;DHT22;24237;50.106;20.014;2024-03-02T05:35:40;8.70;99.90
38456;DHT22;24237;50.106;20.014;2024-03-02T05:38:06;8.60;99.90
38456;DHT22;24237;50.106;20.014;2024-03-02T05:40:31;8.80;99.90
38456;DHT22;24237;50.106;20.014;2024-03-02T05:42:57;8.80;99.90
38456;DHT22;24237;50.106;20.014;2024-03-02T05:45:22;8.90;99.90
38456;DHT22;24237;50.106;20.014;2024-03-02T05:47:48;9.00;99.90
38456;DHT22;24237;50.106;20.014;2024-03-02T05:50:14;9.10;99.90
38456;DHT22;24237;50.106;20.014;2024-03-02T05:52:39;9.10;99.90
38456;DHT22;24237;50.106;20.014;2024-03-02T05:55:05;9.20;99.90
38456;DHT22;24237;50.106;20.014;2024-03-02T05:57:31;9.20;99.90
38456;DHT22;24237;50.106;20.014;2024-03-02T06:00:19;9.40;56.30
38456;DHT22;24237;50.106;20.014;2024-03-02T06:02:45;9.20;88.70
38456;DHT22;24237;50.106;20.014;2024-03-02T06:05:11;9.30;74.80
38456;DHT22;24237;50.106;20.014;2024-03-02T06:07:36;9.40;99.90
38456;DHT22;24237;50.106;20.014;2024-03-02T06:10:02;9.30;99.90
38456;DHT22;24237;50.106;20.014;2024-03-02T06:12:30;9.40;99.90
38456;DHT22;24237;50.106;20.014;2024-03-02T06:14:56;9.70;1.00
38456;DHT22;24237;50.106;20.014;2024-03-02T06:17:21;9.70;1.00
38456;DHT22;24237;50.106;20.014;2024-03-02T06:19:47;9.60;1.00
38456;DHT22;24237;50.106;20.014;2024-03-02T06:22:13;9.60;3.50
38456;DHT22;24237;50.106;20.014;2024-03-02T06:24:38;9.70;1.00
38456;DHT22;24237;50.106;20.014;2024-03-02T06:27:04;9.80;2.20
38456;DHT22;24237;50.106;20.014;2024-03-02T06:29:33;9.60;1.00
38456;DHT22;24237;50.106;20.014;2024-03-02T06:31:59;9.60;44.30
38456;DHT22;24237;50.106;20.014;2024-03-02T06:34:25;9.70;97.00
38456;DHT22;24237;50.106;20.014;2024-03-02T06:36:50;9.90;1.00
38456;DHT22;24237;50.106;20.014;2024-03-02T06:39:17;9.70;1.00
38456;DHT22;24237;50.106;20.014;2024-03-02T06:41:43;9.60;28.00
38456;DHT22;24237;50.106;20.014;2024-03-02T06:44:08;9.90;1.00
38456;DHT22;24237;50.106;20.014;2024-03-02T06:46:34;9.90;1.00
38456;DHT22;24237;50.106;20.014;2024-03-02T06:49:03;9.80;1.00
38456;DHT22;24237;50.106;20.014;2024-03-02T06:51:33;9.90;1.00
38456;DHT22;24237;50.106;20.014;2024-03-02T06:53:59;9.80;1.00
38456;DHT22;24237;50.106;20.014;2024-03-02T06:56:25;10.10;38.00
38456;DHT22;24237;50.106;20.014;2024-03-02T06:58:50;9.90;1.00
38456;DHT22;24237;50.106;20.014;2024-03-02T07:01:17;10.00;1.00
38456;DHT22;24237;50.106;20.014;2024-03-02T07:03:42;10.20;99.90
38456;DHT22;24237;50.106;20.014;2024-03-02T07:06:09;10.20;1.00
38456;DHT22;24237;50.106;20.014;2024-03-02T07:08:35;10.30;1.00
38456;DHT22;24237;50.106;20.014;2024-03-02T07:11:00;10.40;99.90
38456;DHT22;24237;50.106;20.014;2024-03-02T07:13:26;10.60;99.90
38456;DHT22;24237;50.106;20.014;2024-03-02T07:15:52;10.80;62.70
38456;DHT22;24237;50.106;20.014;2024-03-02T07:18:36;10.60;99.90
38456;DHT22;24237;50.106;20.014;2024-03-02T07:21:10;10.70;98.50
38456;DHT22;24237;50.106;20.014;2024-03-02T07:23:36;10.70;99.90
38456;DHT22;24237;50.106;20.014;2024-03-02T07:26:02;10.70;99.90
38456;DHT22;24237;50.106;20.014;2024-03-02T07:28:29;10.70;99.90
38456;DHT22;24237;50.106;20.014;2024-03-02T07:33:24;10.90;99.90
38456;DHT22;24237;50.106;20.014;2024-03-02T07:35:50;10.90;99.90
38456;DHT22;24237;50.106;20.014;2024-03-02T07:38:18;11.00;1.00
38456;DHT22;24237;50.106;20.014;2024-03-02T07:40:44;11.00;1.00
38456;DHT22;24237;50.106;20.014;2024-03-02T07:43:09;11.10;1.00
38456;DHT22;24237;50.106;20.014;2024-03-02T07:45:35;11.20;1.00
38456;DHT22;24237;50.106;20.014;2024-03-02T07:48:02;11.20;1.00
38456;DHT22;24237;50.106;20.014;2024-03-02T07:50:29;11.20;1.00
38456;DHT22;24237;50.106;20.014;2024-03-02T07:52:55;11.30;1.00
38456;DHT22;24237;50.106;20.014;2024-03-02T07:55:21;11.30;99.90
38456;DHT22;24237;50.106;20.014;2024-03-02T07:57:49;11.20;1.00
38456;DHT22;24237;50.106;20.014;2024-03-02T08:00:15;11.30;1.00
38456;DHT22;24237;50.106;20.014;2024-03-02T08:02:41;11.40;17.10
38456;DHT22;24237;50.106;20.014;2024-03-02T08:05:08;11.30;1.00
38456;DHT22;24237;50.106;20.014;2024-03-02T08:07:34;11.30;10.00
38456;DHT22;24237;50.106;20.014;2024-03-02T08:10:00;11.30;1.00
38456;DHT22;24237;50.106;20.014;2024-03-02T08:12:25;11.20;99.90
38456;DHT22;24237;50.106;20.014;2024-03-02T08:14:51;11.30;27.00
38456;DHT22;24237;50.106;20.014;2024-03-02T08:17:17;11.20;31.00
38456;DHT22;24237;50.106;20.014;2024-03-02T08:19:43;11.30;1.00
38456;DHT22;24237;50.106;20.014;2024-03-02T08:22:09;11.50;1.00
38456;DHT22;24237;50.106;20.014;2024-03-02T08:24:35;11.50;1.00
38456;DHT22;24237;50.106;20.014;2024-03-02T08:27:01;11.50;1.00
38456;DHT22;24237;50.106;20.014;2024-03-02T08:29:27;11.60;1.00
38456;DHT22;24237;50.106;20.014;2024-03-02T08:31:54;11.70;1.00
38456;DHT22;24237;50.106;20.014;2024-03-02T08:34:19;11.80;99.90
38456;DHT22;24237;50.106;20.014;2024-03-02T08:36:46;11.80;1.00
38456;DHT22;24237;50.106;20.014;2024-03-02T08:39:12;11.70;99.90
38456;DHT22;24237;50.106;20.014;2024-03-02T08:41:49;12.00;99.90
38456;DHT22;24237;50.106;20.014;2024-03-02T08:44:16;12.20;1.00
38456;DHT22;24237;50.106;20.014;2024-03-02T08:46:42;12.20;99.90
38456;DHT22;24237;50.106;20.014;2024-03-02T08:49:08;12.20;41.70
38456;DHT22;24237;50.106;20.014;2024-03-02T08:51:34;12.20;29.80
38456;DHT22;24237;50.106;20.014;2024-03-02T08:54:00;12.10;1.00
38456;DHT22;24237;50.106;20.014;2024-03-02T08:56:25;12.10;45.70
38456;DHT22;24237;50.106;20.014;2024-03-02T08:58:51;12.10;1.00
38456;DHT22;24237;50.106;20.014;2024-03-02T09:01:18;12.40;1.00
38456;DHT22;24237;50.106;20.014;2024-03-02T09:03:44;12.20;1.00
38456;DHT22;24237;50.106;20.014;2024-03-02T09:06:13;12.10;1.00
38456;DHT22;24237;50.106;20.014;2024-03-02T09:08:39;12.40;1.00
38456;DHT22;24237;50.106;20.014;2024-03-02T09:11:07;12.40;1.00
38456;DHT22;24237;50.106;20.014;2024-03-02T09:13:33;12.40;1.00
38456;DHT22;24237;50.106;20.014;2024-03-02T09:15:59;12.50;99.90
38456;DHT22;24237;50.106;20.014;2024-03-02T09:18:24;12.30;1.00
38456;DHT22;24237;50.106;20.014;2024-03-02T09:20:50;12.40;1.00
38456;DHT22;24237;50.106;20.014;2024-03-02T09:23:16;12.40;99.90
38456;DHT22;24237;50.106;20.014;2024-03-02T09:25:42;12.40;47.70
38456;DHT22;24237;50.106;20.014;2024-03-02T09:28:07;12.60;99.90
38456;DHT22;24237;50.106;20.014;2024-03-02T09:30:34;12.80;99.90
38456;DHT22;24237;50.106;20.014;2024-03-02T09:33:00;12.70;99.90
38456;DHT22;24237;50.106;20.014;2024-03-02T09:35:26;12.60;99.90
38456;DHT22;24237;50.106;20.014;2024-03-02T09:37:51;12.70;99.90
38456;DHT22;24237;50.106;20.014;2024-03-02T09:40:17;12.50;72.50
38456;DHT22;24237;50.106;20.014;2024-03-02T09:42:43;12.40;91.50
38456;DHT22;24237;50.106;20.014;2024-03-02T09:45:10;12.60;1.00
38456;DHT22;24237;50.106;20.014;2024-03-02T09:47:36;12.40;99.90
38456;DHT22;24237;50.106;20.014;2024-03-02T09:50:02;12.20;99.90
38456;DHT22;24237;50.106;20.014;2024-03-02T09:52:30;12.20;1.00
38456;DHT22;24237;50.106;20.014;2024-03-02T09:54:56;12.30;99.90
38456;DHT22;24237;50.106;20.014;2024-03-02T09:57:22;12.60;99.90
38456;DHT22;24237;50.106;20.014;2024-03-02T09:59:47;12.70;1.00
38456;DHT22;24237;50.106;20.014;2024-03-02T10:02:13;12.40;46.90
38456;DHT22;24237;50.106;20.014;2024-03-02T10:04:38;12.50;99.90
38456;DHT22;24237;50.106;20.014;2024-03-02T10:07:18;12.70;99.90
38456;DHT22;24237;50.106;20.014;2024-03-02T10:09:48;12.90;1.00
38456;DHT22;24237;50.106;20.014;2024-03-02T10:12:16;13.10;99.90
38456;DHT22;24237;50.106;20.014;2024-03-02T10:14:41;13.00;1.00
38456;DHT22;24237;50.106;20.014;2024-03-02T10:17:09;13.30;1.00
38456;DHT22;24237;50.106;20.014;2024-03-02T10:19:36;13.60;99.90
38456;DHT22;24237;50.106;20.014;2024-03-02T10:22:07;13.60;93.00
38456;DHT22;24237;50.106;20.014;2024-03-02T10:24:38;13.60;99.90
38456;DHT22;24237;50.106;20.014;2024-03-02T10:27:08;13.90;1.00
38456;DHT22;24237;50.106;20.014;2024-03-02T10:29:37;13.90;1.00
38456;DHT22;24237;50.106;20.014;2024-03-02T10:32:04;14.10;1.00
38456;DHT22;24237;50.106;20.014;2024-03-02T10:34:32;14.20;99.90
38456;DHT22;24237;50.106;20.014;2024-03-02T10:36:58;14.10;1.00
38456;DHT22;24237;50.106;20.014;2024-03-02T10:39:25;13.90;99.90
38456;DHT22;24237;50.106;20.014;2024-03-02T10:41:52;13.90;1.00
38456;DHT22;24237;50.106;20.014;2024-03-02T10:44:18;14.00;99.90
38456;DHT22;24237;50.106;20.014;2024-03-02T10:46:45;13.90;99.90
38456;DHT22;24237;50.106;20.014;2024-03-02T10:49:12;14.10;99.90
38456;DHT22;24237;50.106;20.014;2024-03-02T10:51:38;14.30;99.90
38456;DHT22;24237;50.106;20.014;2024-03-02T10:54:04;14.30;99.90
38456;DHT22;24237;50.106;20.014;2024-03-02T10:56:48;14.50;99.90
38456;DHT22;24237;50.106;20.014;2024-03-02T10:59:28;14.60;99.90
38456;DHT22;24237;50.106;20.014;2024-03-02T11:01:58;14.50;99.90
38456;DHT22;24237;50.106;20.014;2024-03-02T11:04:25;14.70;30.10
38456;DHT22;24237;50.106;20.014;2024-03-02T11:06:52;14.50;72.50
38456;DHT22;24237;50.106;20.014;2024-03-02T11:09:22;14.60;94.00
38456;DHT22;24237;50.106;20.014;2024-03-02T11:12:00;14.50;73.20
38456;DHT22;24237;50.106;20.014;2024-03-02T11:14:32;14.80;1.00
38456;DHT22;24237;50.106;20.014;2024-03-02T11:17:03;14.90;1.00
38456;DHT22;24237;50.106;20.014;2024-03-02T11:19:29;14.80;1.00
38456;DHT22;24237;50.106;20.014;2024-03-02T11:21:56;15.10;1.00
38456;DHT22;24237;50.106;20.014;2024-03-02T11:26:53;15.50;99.90
38456;DHT22;24237;50.106;20.014;2024-03-02T11:32:05;15.50;99.90
38456;DHT22;24237;50.106;20.014;2024-03-02T11:34:33;15.60;99.90
38456;DHT22;24237;50.106;20.014;2024-03-02T11:37:01;15.80;99.90
38456;DHT22;24237;50.106;20.014;2024-03-02T11:39:28;15.90;99.90
38456;DHT22;24237;50.106;20.014;2024-03-02T11:41:57;16.00;99.90
38456;DHT22;24237;50.106;20.014;2024-03-02T11:44:27;16.00;99.90
38456;DHT22;24237;50.106;20.014;2024-03-02T11:47:06;15.90;99.90
38456;DHT22;24237;50.106;20.014;2024-03-02T11:52:07;15.90;99.90
38456;DHT22;24237;50.106;20.014;2024-03-02T11:54:33;16.00;99.90
38456;DHT22;24237;50.106;20.014;2024-03-02T11:57:05;15.70;99.90
38456;DHT22;24237;50.106;20.014;2024-03-02T11:59:31;15.80;99.90
38456;DHT22;24237;50.106;20.014;2024-03-02T12:01:58;15.90;16.10
38456;DHT22;24237;50.106;20.014;2024-03-02T12:04:24;15.70;19.90
38456;DHT22;24237;50.106;20.014;2024-03-02T12:06:57;15.60;53.70
38456;DHT22;24237;50.106;20.014;2024-03-02T12:09:27;15.60;83.90
38456;DHT22;24237;50.106;20.014;2024-03-02T12:12:08;15.90;36.70
38456;DHT22;24237;50.106;20.014;2024-03-02T12:14:38;15.50;84.50
38456;DHT22;24237;50.106;20.014;2024-03-02T12:17:05;15.80;57.20
38456;DHT22;24237;50.106;20.014;2024-03-02T12:19:32;15.80;39.10
38456;DHT22;24237;50.106;20.014;2024-03-02T12:21:59;15.90;1.00
38456;DHT22;24237;50.106;20.014;2024-03-02T12:24:27;16.10;1.00
38456;DHT22;24237;50.106;20.014;2024-03-02T12:26:53;15.80;1.00
38456;DHT22;24237;50.106;20.014;2024-03-02T12:29:20;16.10;1.00
38456;DHT22;24237;50.106;20.014;2024-03-02T12:31:48;16.40;1.00
38456;DHT22;24237;50.106;20.014;2024-03-02T12:34:15;16.10;1.00
38456;DHT22;24237;50.106;20.014;2024-03-02T12:36:41;16.30;1.00
38456;DHT22;24237;50.106;20.014;2024-03-02T12:39:08;16.30;1.00
38456;DHT22;24237;50.106;20.014;2024-03-02T12:41:38;16.10;1.00
38456;DHT22;24237;50.106;20.014;2024-03-02T12:44:04;15.70;1.00
38456;DHT22;24237;50.106;20.014;2024-03-02T12:46:31;15.80;27.80
38456;DHT22;24237;50.106;20.014;2024-03-02T12:48:58;16.50;1.00
38456;DHT22;24237;50.106;20.014;2024-03-02T12:51:24;16.90;1.00
38456;DHT22;24237;50.106;20.014;2024-03-02T12:53:57;17.40;99.90
38456;DHT22;24237;50.106;20.014;2024-03-02T12:56:24;17.50;99.90
38456;DHT22;24237;50.106;20.014;2024-03-02T12:58:54;17.50;99.90
38456;DHT22;24237;50.106;20.014;2024-03-02T13:01:20;17.70;99.90
38456;DHT22;24237;50.106;20.014;2024-03-02T13:03:49;18.30;99.90
38456;DHT22;24237;50.106;20.014;2024-03-02T13:06:17;18.40;87.40
38456;DHT22;24237;50.106;20.014;2024-03-02T13:08:42;18.70;23.40
38456;DHT22;24237;50.106;20.014;2024-03-02T13:11:09;19.20;1.00
38456;DHT22;24237;50.106;20.014;2024-03-02T13:13:35;19.20;1.00
38456;DHT22;24237;50.106;20.014;2024-03-02T13:16:00;18.50;99.90
38456;DHT22;24237;50.106;20.014;2024-03-02T13:18:27;17.90;1.00
38456;DHT22;24237;50.106;20.014;2024-03-02T13:20:53;17.80;1.00
38456;DHT22;24237;50.106;20.014;2024-03-02T13:23:21;17.50;1.00
38456;DHT22;24237;50.106;20.014;2024-03-02T13:25:47;17.40;1.00
38456;DHT22;24237;50.106;20.014;2024-03-02T13:28:13;17.30;1.00
38456;DHT22;24237;50.106;20.014;2024-03-02T13:30:39;17.10;1.00
38456;DHT22;24237;50.106;20.014;2024-03-02T13:33:04;16.90;1.00
38456;DHT22;24237;50.106;20.014;2024-03-02T13:35:30;16.90;1.00
38456;DHT22;24237;50.106;20.014;2024-03-02T13:37:56;17.10;1.00
38456;DHT22;24237;50.106;20.014;2024-03-02T13:40:21;17.10;1.00
38456;DHT22;24237;50.106;20.014;2024-03-02T13:42:49;16.80;1.00
38456;DHT22;24237;50.106;20.014;2024-03-02T13:45:16;16.80;1.00
38456;DHT22;24237;50.106;20.014;2024-03-02T13:47:43;16.90;1.00
38456;DHT22;24237;50.106;20.014;2024-03-02T13:50:09;17.00;1.00
38456;DHT22;24237;50.106;20.014;2024-03-02T13:52:35;16.90;1.00
38456;DHT22;24237;50.106;20.014;2024-03-02T13:55:00;16.80;1.00
38456;DHT22;24237;50.106;20.014;2024-03-02T13:57:26;16.60;1.00
38456;DHT22;24237;50.106;20.014;2024-03-02T13:59:51;16.70;1.00
38456;DHT22;24237;50.106;20.014;2024-03-02T14:02:18;16.70;1.00
38456;DHT22;24237;50.106;20.014;2024-03-02T14:04:43;16.70;1.00
38456;DHT22;24237;50.106;20.014;2024-03-02T14:07:09;16.80;1.00
38456;DHT22;24237;50.106;20.014;2024-03-02T14:09:37;17.20;1.00
38456;DHT22;24237;50.106;20.014;2024-03-02T14:12:03;17.30;1.00
38456;DHT22;24237;50.106;20.014;2024-03-02T14:14:29;17.50;1.00
38456;DHT22;24237;50.106;20.014;2024-03-02T14:16:55;17.50;1.00
38456;DHT22;24237;50.106;20.014;2024-03-02T14:19:29;17.40;1.00
38456;DHT22;24237;50.106;20.014;2024-03-02T14:21:55;17.50;1.00
38456;DHT22;24237;50.106;20.014;2024-03-02T14:24:21;17.30;1.00
38456;DHT22;24237;50.106;20.014;2024-03-02T14:26:52;17.20;1.00
38456;DHT22;24237;50.106;20.014;2024-03-02T14:29:18;17.30;1.00
38456;DHT22;24237;50.106;20.014;2024-03-02T14:31:44;17.10;1.00
38456;DHT22;24237;50.106;20.014;2024-03-02T14:34:16;17.30;1.00
38456;DHT22;24237;50.106;20.014;2024-03-02T14:36:42;16.90;1.00
38456;DHT22;24237;50.106;20.014;2024-03-02T14:39:10;16.70;1.00
38456;DHT22;24237;50.106;20.014;2024-03-02T14:41:36;16.70;1.00
38456;DHT22;24237;50.106;20.014;2024-03-02T14:44:02;16.70;1.00
38456;DHT22;24237;50.106;20.014;2024-03-02T14:46:28;16.80;1.00
38456;DHT22;24237;50.106;20.014;2024-03-02T14:48:54;16.80;1.00
38456;DHT22;24237;50.106;20.014;2024-03-02T14:51:20;16.80;1.00
38456;DHT22;24237;50.106;20.014;2024-03-02T14:53:46;16.60;6.40
38456;DHT22;24237;50.106;20.014;2024-03-02T14:56:12;16.70;27.40
38456;DHT22;24237;50.106;20.014;2024-03-02T14:58:41;16.80;18.40
38456;DHT22;24237;50.106;20.014;2024-03-02T15:01:06;16.50;46.40
38456;DHT22;24237;50.106;20.014;2024-03-02T15:03:32;16.60;32.00
38456;DHT22;24237;50.106;20.014;2024-03-02T15:05:59;16.60;38.90
38456;DHT22;24237;50.106;20.014;2024-03-02T15:08:24;16.60;42.40
38456;DHT22;24237;50.106;20.014;2024-03-02T15:10:50;16.70;66.00
38456;DHT22;24237;50.106;20.014;2024-03-02T15:13:16;16.60;54.90
38456;DHT22;24237;50.106;20.014;2024-03-02T15:15:42;16.60;35.50
38456;DHT22;24237;50.106;20.014;2024-03-02T15:18:07;16.60;29.90
38456;DHT22;24237;50.106;20.014;2024-03-02T15:20:34;16.60;53.60
38456;DHT22;24237;50.106;20.014;2024-03-02T15:23:00;16.50;92.00
38456;DHT22;24237;50.106;20.014;2024-03-02T15:25:25;16.50;93.20
38456;DHT22;24237;50.106;20.014;2024-03-02T15:27:51;16.40;88.00
38456;DHT22;24237;50.106;20.014;2024-03-02T15:30:17;16.20;99.50
38456;DHT22;24237;50.106;20.014;2024-03-02T15:32:42;16.00;99.90
38456;DHT22;24237;50.106;20.014;2024-03-02T15:35:08;15.90;99.90
38456;DHT22;24237;50.106;20.014;2024-03-02T15:37:34;16.00;99.90
38456;DHT22;24237;50.106;20.014;2024-03-02T15:40:00;16.00;99.90